Eden, New York
Current Conditions -  °F | °C
As of 11:53 AM on Sunday 21 Dec 2014 (Local Time) from KDKK Reporting Station
Overcast Overcast  
Wind Chill: 27°   Ceiling: 2800
Heat Index: 32°   Visibility: 10mi
Dew Point: 23°   Wind: 5mph
Humidity: 69%   Direction: 240°WSW
Pressure: 30.31"   Gusts: NA
Location:  42.65°N, 78.9°W
Report Text: KDKK 211653Z AUTO 24004KT 10SM OVC028 00/M05 A3031 RMK AO2 SLP273 T00001050 $
Loading
Personal Weather Stations






























Interactive Weather Map New forecast layout! Learn more

10-Day Weather Forecast

Advertisements
Track Severe Weather on mobile